X  Close Metar Aviation Weather Data     KPNS Pensacola International Airport
Temperature
70°F Temperature
61°F Dewpoint
73% Humidity



Wind
13 MPH
21 KM/H
6 M/S
11 KTS



120°
ESE
Current Conditions

Overcast Overcast
Pressure 1022.72 (hPa) - 30.2 (inHg)
Visibility 10 (mile) - 16.1 (km)
Airport
Airport-code KPNS

Location: Pensacola International Airport
Distance: 9 (mi)

Metar:
KPNS 071953Z 12011KT 10SM OVC019 21/16 A3020 RMK AO2 SLP227 T02110156

Time: 07-02-2023 13:53 CST